sensor_id;sensor_type;location;lat;lon;timestamp;pressure;altitude;pressure_sealevel;temperature;humidity
26859;BME280;14429;48.346;16.338;2023-04-25T00:00:58;98989.34;;;17.08;54.54
26859;BME280;14429;48.346;16.338;2023-04-25T00:03:23;98998.38;;;16.67;52.69
26859;BME280;14429;48.346;16.338;2023-04-25T00:05:49;98996.28;;;16.86;52.09
26859;BME280;14429;48.346;16.338;2023-04-25T00:08:14;99004.09;;;16.97;54.48
26859;BME280;14429;48.346;16.338;2023-04-25T00:10:40;98994.13;;;16.89;54.01
26859;BME280;14429;48.346;16.338;2023-04-25T00:13:05;98998.03;;;16.95;54.60
26859;BME280;14429;48.346;16.338;2023-04-25T00:15:32;98994.63;;;17.18;54.66
26859;BME280;14429;48.346;16.338;2023-04-25T00:17:58;98997.38;;;17.00;54.54
26859;BME280;14429;48.346;16.338;2023-04-25T00:20:23;99003.47;;;17.02;54.42
26859;BME280;14429;48.346;16.338;2023-04-25T00:22:49;99002.44;;;17.03;53.18
26859;BME280;14429;48.346;16.338;2023-04-25T00:25:14;98993.44;;;17.20;54.33
26859;BME280;14429;48.346;16.338;2023-04-25T00:27:40;98989.63;;;17.05;50.85
26859;BME280;14429;48.346;16.338;2023-04-25T00:30:06;99004.31;;;16.70;54.07
26859;BME280;14429;48.346;16.338;2023-04-25T00:32:33;98992.97;;;16.92;55.09
26859;BME280;14429;48.346;16.338;2023-04-25T00:34:59;98996.28;;;16.86;51.63
26859;BME280;14429;48.346;16.338;2023-04-25T00:37:24;98992.25;;;16.82;52.56
26859;BME280;14429;48.346;16.338;2023-04-25T00:39:50;98997.09;;;16.78;54.48
26859;BME280;14429;48.346;16.338;2023-04-25T00:42:16;98991.31;;;16.99;54.54
26859;BME280;14429;48.346;16.338;2023-04-25T00:44:42;98985.91;;;16.91;54.93
26859;BME280;14429;48.346;16.338;2023-04-25T00:47:08;98988.63;;;16.99;54.67
26859;BME280;14429;48.346;16.338;2023-04-25T00:49:37;98991.94;;;16.85;53.68
26859;BME280;14429;48.346;16.338;2023-04-25T00:52:03;98991.94;;;16.85;54.29
26859;BME280;14429;48.346;16.338;2023-04-25T00:54:29;98992.31;;;16.98;54.76
26859;BME280;14429;48.346;16.338;2023-04-25T00:56:54;98988.88;;;16.80;50.67
26859;BME280;14429;48.346;16.338;2023-04-25T00:59:20;98983.88;;;16.93;54.73
26859;BME280;14429;48.346;16.338;2023-04-25T01:01:46;98985.81;;;16.75;49.97
26859;BME280;14429;48.346;16.338;2023-04-25T01:04:12;98989.25;;;16.93;55.00
26859;BME280;14429;48.346;16.338;2023-04-25T01:06:39;98990.94;;;16.94;54.78
26859;BME280;14429;48.346;16.338;2023-04-25T01:09:05;98987.09;;;16.96;54.78
26859;BME280;14429;48.346;16.338;2023-04-25T01:11:31;98985.66;;;16.76;55.11
26859;BME280;14429;48.346;16.338;2023-04-25T01:13:57;98989.56;;;16.82;54.88
26859;BME280;14429;48.346;16.338;2023-04-25T01:16:23;98984.91;;;16.92;54.96
26859;BME280;14429;48.346;16.338;2023-04-25T01:18:48;98992.16;;;16.99;54.84
26859;BME280;14429;48.346;16.338;2023-04-25T01:21:15;98991.44;;;16.89;51.70
26859;BME280;14429;48.346;16.338;2023-04-25T01:23:41;98987.28;;;16.95;54.59
26859;BME280;14429;48.346;16.338;2023-04-25T01:26:09;98981.88;;;16.95;54.67
26859;BME280;14429;48.346;16.338;2023-04-25T01:28:34;98985.94;;;16.99;54.45
26859;BME280;14429;48.346;16.338;2023-04-25T01:31:01;98983.75;;;17.02;54.43
26859;BME280;14429;48.346;16.338;2023-04-25T01:33:26;98977.34;;;16.95;54.83
26859;BME280;14429;48.346;16.338;2023-04-25T01:35:52;98984.19;;;16.90;54.48
26859;BME280;14429;48.346;16.338;2023-04-25T01:38:19;98978.81;;;16.90;54.76
26859;BME280;14429;48.346;16.338;2023-04-25T01:40:45;98983.50;;;16.80;53.62
26859;BME280;14429;48.346;16.338;2023-04-25T01:43:11;98974.78;;;16.94;54.71
26859;BME280;14429;48.346;16.338;2023-04-25T01:45:37;98979.78;;;16.81;53.71
26859;BME280;14429;48.346;16.338;2023-04-25T01:48:03;98976.59;;;16.85;54.71
26859;BME280;14429;48.346;16.338;2023-04-25T01:50:28;98978.75;;;16.49;54.01
26859;BME280;14429;48.346;16.338;2023-04-25T01:52:55;98973.28;;;16.58;54.17
26859;BME280;14429;48.346;16.338;2023-04-25T01:55:22;98979.38;;;16.68;52.89
26859;BME280;14429;48.346;16.338;2023-04-25T01:57:47;98985.66;;;16.76;54.83
26859;BME280;14429;48.346;16.338;2023-04-25T02:00:13;98981.03;;;16.61;54.13
26859;BME280;14429;48.346;16.338;2023-04-25T02:02:39;98980.94;;;16.45;51.35
26859;BME280;14429;48.346;16.338;2023-04-25T02:05:05;98976.03;;;16.74;54.90
26859;BME280;14429;48.346;16.338;2023-04-25T02:07:31;98975.69;;;16.69;54.25
26859;BME280;14429;48.346;16.338;2023-04-25T02:09:57;98974.19;;;16.74;54.48
26859;BME280;14429;48.346;16.338;2023-04-25T02:12:24;98973.81;;;16.62;55.04
26859;BME280;14429;48.346;16.338;2023-04-25T02:14:49;98981.22;;;16.68;54.82
26859;BME280;14429;48.346;16.338;2023-04-25T02:17:15;98973.66;;;16.71;54.87
26859;BME280;14429;48.346;16.338;2023-04-25T02:19:40;98974.38;;;16.73;54.83
26859;BME280;14429;48.346;16.338;2023-04-25T02:22:06;98975.66;;;16.61;53.18
26859;BME280;14429;48.346;16.338;2023-04-25T02:24:31;98969.00;;;16.81;54.68
26859;BME280;14429;48.346;16.338;2023-04-25T02:26:57;98985.84;;;16.83;54.75
26859;BME280;14429;48.346;16.338;2023-04-25T02:29:24;98974.56;;;16.46;50.13
26859;BME280;14429;48.346;16.338;2023-04-25T02:31:49;98971.25;;;16.60;53.28
26859;BME280;14429;48.346;16.338;2023-04-25T02:34:15;98973.63;;;16.63;54.99
26859;BME280;14429;48.346;16.338;2023-04-25T02:36:40;98966.09;;;16.67;54.88
26859;BME280;14429;48.346;16.338;2023-04-25T02:39:06;98968.22;;;16.55;52.24
26859;BME280;14429;48.346;16.338;2023-04-25T02:41:31;98974.88;;;16.18;50.26
26859;BME280;14429;48.346;16.338;2023-04-25T02:43:57;98976.31;;;16.63;55.02
26859;BME280;14429;48.346;16.338;2023-04-25T02:46:24;98964.41;;;16.41;52.53
26859;BME280;14429;48.346;16.338;2023-04-25T02:48:49;98976.31;;;16.63;54.36
26859;BME280;14429;48.346;16.338;2023-04-25T02:51:15;98965.38;;;16.32;49.69
26859;BME280;14429;48.346;16.338;2023-04-25T02:53:40;98961.50;;;16.34;55.25
26859;BME280;14429;48.346;16.338;2023-04-25T02:56:06;98972.94;;;16.53;54.70
26859;BME280;14429;48.346;16.338;2023-04-25T02:58:31;98965.56;;;16.63;54.75
26859;BME280;14429;48.346;16.338;2023-04-25T03:00:57;98961.47;;;16.51;52.16
26859;BME280;14429;48.346;16.338;2023-04-25T03:03:23;98962.00;;;16.55;54.78
26859;BME280;14429;48.346;16.338;2023-04-25T03:05:49;98959.13;;;16.56;54.87
26859;BME280;14429;48.346;16.338;2023-04-25T03:08:15;98966.56;;;16.62;54.85
26859;BME280;14429;48.346;16.338;2023-04-25T03:10:41;98965.78;;;16.45;55.06
26859;BME280;14429;48.346;16.338;2023-04-25T03:13:07;98966.94;;;15.58;49.67
26859;BME280;14429;48.346;16.338;2023-04-25T03:15:33;98966.00;;;16.26;55.84
26859;BME280;14429;48.346;16.338;2023-04-25T03:17:58;98960.91;;;15.98;54.47
26859;BME280;14429;48.346;16.338;2023-04-25T03:20:25;98961.44;;;16.01;53.34
26859;BME280;14429;48.346;16.338;2023-04-25T03:22:50;98968.81;;;15.99;54.56
26859;BME280;14429;48.346;16.338;2023-04-25T03:25:16;98956.22;;;16.17;56.00
26859;BME280;14429;48.346;16.338;2023-04-25T03:27:41;98964.91;;;15.94;51.97
26859;BME280;14429;48.346;16.338;2023-04-25T03:30:07;98969.25;;;16.12;56.01
26859;BME280;14429;48.346;16.338;2023-04-25T03:32:33;98963.69;;;16.31;55.95
26859;BME280;14429;48.346;16.338;2023-04-25T03:34:58;98966.56;;;16.12;55.70
26859;BME280;14429;48.346;16.338;2023-04-25T03:37:25;98970.50;;;16.00;53.06
26859;BME280;14429;48.346;16.338;2023-04-25T03:39:51;98970.97;;;16.13;55.88
26859;BME280;14429;48.346;16.338;2023-04-25T03:42:16;98964.63;;;16.22;55.66
26859;BME280;14429;48.346;16.338;2023-04-25T03:44:42;98966.72;;;16.28;55.32
26859;BME280;14429;48.346;16.338;2023-04-25T03:47:07;98970.44;;;16.10;52.13
26859;BME280;14429;48.346;16.338;2023-04-25T03:49:34;98964.03;;;15.93;55.28
26859;BME280;14429;48.346;16.338;2023-04-25T03:52:00;98982.81;;;15.86;54.37
26859;BME280;14429;48.346;16.338;2023-04-25T03:54:26;98980.47;;;16.25;55.89
26859;BME280;14429;48.346;16.338;2023-04-25T03:56:52;98976.81;;;16.34;55.59
26859;BME280;14429;48.346;16.338;2023-04-25T03:59:17;98988.38;;;16.26;52.97
26859;BME280;14429;48.346;16.338;2023-04-25T04:01:43;98974.13;;;16.34;55.42
26859;BME280;14429;48.346;16.338;2023-04-25T04:04:08;98987.22;;;16.29;55.52
26859;BME280;14429;48.346;16.338;2023-04-25T04:06:34;98988.19;;;15.86;51.61
26859;BME280;14429;48.346;16.338;2023-04-25T04:08:59;98984.53;;;16.29;55.67
26859;BME280;14429;48.346;16.338;2023-04-25T04:11:26;98988.53;;;16.08;54.65
26859;BME280;14429;48.346;16.338;2023-04-25T04:13:52;98982.09;;;16.43;55.53
26859;BME280;14429;48.346;16.338;2023-04-25T04:16:17;98988.91;;;16.30;55.08
26859;BME280;14429;48.346;16.338;2023-04-25T04:18:42;98986.84;;;16.07;51.55
26859;BME280;14429;48.346;16.338;2023-04-25T04:21:08;98993.63;;;16.28;55.75
26859;BME280;14429;48.346;16.338;2023-04-25T04:23:33;99000.63;;;16.21;55.08
26859;BME280;14429;48.346;16.338;2023-04-25T04:25:59;99007.66;;;16.39;55.46
26859;BME280;14429;48.346;16.338;2023-04-25T04:28:26;99003.19;;;16.30;54.82
26859;BME280;14429;48.346;16.338;2023-04-25T04:30:51;99017.28;;;16.49;55.15
26859;BME280;14429;48.346;16.338;2023-04-25T04:33:17;99006.72;;;16.56;55.03
26859;BME280;14429;48.346;16.338;2023-04-25T04:35:42;99005.91;;;16.55;55.08
26859;BME280;14429;48.346;16.338;2023-04-25T04:38:08;98999.16;;;16.51;55.03
26859;BME280;14429;48.346;16.338;2023-04-25T04:40:34;99009.59;;;16.54;55.00
26859;BME280;14429;48.346;16.338;2023-04-25T04:42:59;99004.22;;;16.54;55.06
26859;BME280;14429;48.346;16.338;2023-04-25T04:45:26;99011.59;;;16.52;54.79
26859;BME280;14429;48.346;16.338;2023-04-25T04:47:52;99013.94;;;16.47;54.01
26859;BME280;14429;48.346;16.338;2023-04-25T04:50:17;99013.63;;;16.50;55.22
26859;BME280;14429;48.346;16.338;2023-04-25T04:52:43;99010.75;;;16.52;55.07
26859;BME280;14429;48.346;16.338;2023-04-25T04:55:08;99010.28;;;16.56;54.99
26859;BME280;14429;48.346;16.338;2023-04-25T04:57:34;99019.00;;;16.50;54.95
26859;BME280;14429;48.346;16.338;2023-04-25T05:00:00;99008.22;;;16.50;55.02
26859;BME280;14429;48.346;16.338;2023-04-25T05:02:27;99011.59;;;16.52;54.96
26859;BME280;14429;48.346;16.338;2023-04-25T05:04:52;99008.06;;;16.52;54.90
26859;BME280;14429;48.346;16.338;2023-04-25T05:07:18;98999.47;;;16.48;55.01
26859;BME280;14429;48.346;16.338;2023-04-25T05:09:43;99005.34;;;16.27;50.88
26859;BME280;14429;48.346;16.338;2023-04-25T05:12:09;99002.81;;;16.43;55.03
26859;BME280;14429;48.346;16.338;2023-04-25T05:14:35;99010.53;;;16.45;55.03
26859;BME280;14429;48.346;16.338;2023-04-25T05:17:00;99008.53;;;16.47;55.07
26859;BME280;14429;48.346;16.338;2023-04-25T05:19:27;98995.41;;;16.45;55.17
26859;BME280;14429;48.346;16.338;2023-04-25T05:21:52;98998.09;;;16.45;55.08
26859;BME280;14429;48.346;16.338;2023-04-25T05:24:18;99006.84;;;16.46;54.97
26859;BME280;14429;48.346;16.338;2023-04-25T05:26:43;99014.09;;;16.46;55.00
26859;BME280;14429;48.346;16.338;2023-04-25T05:29:09;99016.91;;;16.45;55.19
26859;BME280;14429;48.346;16.338;2023-04-25T05:31:36;99014.09;;;16.46;55.02
26859;BME280;14429;48.346;16.338;2023-04-25T05:34:01;99010.88;;;16.43;55.25
26859;BME280;14429;48.346;16.338;2023-04-25T05:36:28;99011.72;;;16.43;55.24
26859;BME280;14429;48.346;16.338;2023-04-25T05:38:53;99008.19;;;16.43;55.19
26859;BME280;14429;48.346;16.338;2023-04-25T05:41:19;99010.88;;;16.43;55.00
26859;BME280;14429;48.346;16.338;2023-04-25T05:43:44;99007.16;;;16.44;54.91
26859;BME280;14429;48.346;16.338;2023-04-25T05:46:10;99007.16;;;16.44;54.96
26859;BME280;14429;48.346;16.338;2023-04-25T05:48:35;99010.22;;;16.48;54.98
26859;BME280;14429;48.346;16.338;2023-04-25T05:51:01;99004.94;;;16.64;54.44
26859;BME280;14429;48.346;16.338;2023-04-25T05:53:28;99002.56;;;16.94;53.48
26859;BME280;14429;48.346;16.338;2023-04-25T05:55:53;98995.59;;;17.09;53.05
26859;BME280;14429;48.346;16.338;2023-04-25T05:58:18;99010.22;;;17.06;53.01
26859;BME280;14429;48.346;16.338;2023-04-25T06:00:44;99008.63;;;17.21;52.58
26859;BME280;14429;48.346;16.338;2023-04-25T06:03:09;99001.19;;;17.15;52.47
26859;BME280;14429;48.346;16.338;2023-04-25T06:05:35;98996.22;;;17.03;52.97
26859;BME280;14429;48.346;16.338;2023-04-25T06:08:00;99005.59;;;16.91;53.16
26859;BME280;14429;48.346;16.338;2023-04-25T06:10:27;99002.38;;;16.88;53.28
26859;BME280;14429;48.346;16.338;2023-04-25T06:12:52;98997.88;;;16.96;53.13
26859;BME280;14429;48.346;16.338;2023-04-25T06:15:18;98987.69;;;17.07;52.48
26859;BME280;14429;48.346;16.338;2023-04-25T06:17:43;98986.59;;;17.00;52.82
26859;BME280;14429;48.346;16.338;2023-04-25T06:20:10;98989.59;;;16.90;52.78
26859;BME280;14429;48.346;16.338;2023-04-25T06:22:35;98987.06;;;16.88;53.28
26859;BME280;14429;48.346;16.338;2023-04-25T06:25:01;98976.00;;;16.66;54.10
26859;BME280;14429;48.346;16.338;2023-04-25T06:27:27;98990.47;;;16.65;54.17
26859;BME280;14429;48.346;16.338;2023-04-25T06:29:53;98980.78;;;16.72;54.05
26859;BME280;14429;48.346;16.338;2023-04-25T06:32:18;98987.13;;;16.71;53.85
26859;BME280;14429;48.346;16.338;2023-04-25T06:34:44;98986.84;;;16.82;53.72
26859;BME280;14429;48.346;16.338;2023-04-25T06:37:09;98986.66;;;16.75;53.79
26859;BME280;14429;48.346;16.338;2023-04-25T06:39:35;98977.66;;;16.59;53.42
26859;BME280;14429;48.346;16.338;2023-04-25T06:42:00;98987.41;;;16.60;52.96
26859;BME280;14429;48.346;16.338;2023-04-25T06:44:27;98977.69;;;16.67;52.73
26859;BME280;14429;48.346;16.338;2023-04-25T06:46:52;98977.72;;;16.75;52.78
26859;BME280;14429;48.346;16.338;2023-04-25T06:49:18;98979.06;;;16.71;52.64
26859;BME280;14429;48.346;16.338;2023-04-25T06:51:43;98979.38;;;16.68;52.41
26859;BME280;14429;48.346;16.338;2023-04-25T06:54:09;98978.75;;;16.74;52.70
26859;BME280;14429;48.346;16.338;2023-04-25T06:56:34;98974.69;;;16.70;52.42
26859;BME280;14429;48.346;16.338;2023-04-25T06:59:00;98973.66;;;16.71;52.55
26859;BME280;14429;48.346;16.338;2023-04-25T07:01:27;98975.03;;;16.75;52.29
26859;BME280;14429;48.346;16.338;2023-04-25T07:03:52;98963.63;;;16.81;52.19
26859;BME280;14429;48.346;16.338;2023-04-25T07:06:17;98958.56;;;16.78;52.21
26859;BME280;14429;48.346;16.338;2023-04-25T07:08:43;98950.16;;;16.81;52.04
26859;BME280;14429;48.346;16.338;2023-04-25T07:11:08;98961.59;;;16.83;51.96
26859;BME280;14429;48.346;16.338;2023-04-25T07:13:34;98958.25;;;16.81;51.45
26859;BME280;14429;48.346;16.338;2023-04-25T07:15:59;98961.94;;;16.80;51.17
26859;BME280;14429;48.346;16.338;2023-04-25T07:18:26;98946.63;;;16.80;51.51
26859;BME280;14429;48.346;16.338;2023-04-25T07:20:52;98959.44;;;16.86;51.88
26859;BME280;14429;48.346;16.338;2023-04-25T07:23:17;98967.06;;;16.91;51.70
26859;BME280;14429;48.346;16.338;2023-04-25T07:25:43;98960.13;;;16.88;49.12
26859;BME280;14429;48.346;16.338;2023-04-25T07:28:08;98957.78;;;16.93;51.79
26859;BME280;14429;48.346;16.338;2023-04-25T07:30:33;98951.91;;;16.98;51.36
26859;BME280;14429;48.346;16.338;2023-04-25T07:32:59;98950.72;;;16.92;51.82
26859;BME280;14429;48.346;16.338;2023-04-25T07:35:26;98946.88;;;16.95;51.71
26859;BME280;14429;48.346;16.338;2023-04-25T07:37:51;98947.22;;;16.99;47.88
26859;BME280;14429;48.346;16.338;2023-04-25T07:40:17;98941.88;;;17.07;47.04
26859;BME280;14429;48.346;16.338;2023-04-25T07:42:42;98932.28;;;17.13;51.10
26859;BME280;14429;48.346;16.338;2023-04-25T07:45:08;98934.53;;;17.25;50.58
26859;BME280;14429;48.346;16.338;2023-04-25T07:47:34;98938.03;;;17.18;51.09
26859;BME280;14429;48.346;16.338;2023-04-25T07:50:00;98938.56;;;17.29;50.43
26859;BME280;14429;48.346;16.338;2023-04-25T07:52:26;98938.56;;;17.21;51.04
26859;BME280;14429;48.346;16.338;2023-04-25T07:54:52;98936.91;;;17.28;50.71
26859;BME280;14429;48.346;16.338;2023-04-25T07:57:18;98924.47;;;17.43;48.50
26859;BME280;14429;48.346;16.338;2023-04-25T07:59:44;98934.22;;;17.52;48.71
26859;BME280;14429;48.346;16.338;2023-04-25T08:02:09;98930.50;;;17.45;49.13
26859;BME280;14429;48.346;16.338;2023-04-25T08:04:35;98928.47;;;17.39;50.04
26859;BME280;14429;48.346;16.338;2023-04-25T08:07:00;98927.28;;;17.26;50.73
26859;BME280;14429;48.346;16.338;2023-04-25T08:09:27;98914.63;;;17.18;50.87
26859;BME280;14429;48.346;16.338;2023-04-25T08:11:52;98912.94;;;17.17;51.09
26859;BME280;14429;48.346;16.338;2023-04-25T08:14:18;98919.38;;;17.24;50.84
26859;BME280;14429;48.346;16.338;2023-04-25T08:16:43;98911.97;;;17.50;47.70
26859;BME280;14429;48.346;16.338;2023-04-25T08:19:09;98911.13;;;17.41;49.98
26859;BME280;14429;48.346;16.338;2023-04-25T08:21:34;98913.97;;;17.24;50.73
26859;BME280;14429;48.346;16.338;2023-04-25T08:24:00;98907.88;;;17.14;50.98
26859;BME280;14429;48.346;16.338;2023-04-25T08:26:28;98916.25;;;17.03;51.29
26859;BME280;14429;48.346;16.338;2023-04-25T08:28:53;98907.44;;;16.94;51.53
26859;BME280;14429;48.346;16.338;2023-04-25T08:31:19;98904.19;;;17.15;46.31
26859;BME280;14429;48.346;16.338;2023-04-25T08:33:44;98907.38;;;17.11;50.88
26859;BME280;14429;48.346;16.338;2023-04-25T08:36:09;98906.69;;;17.09;50.73
26859;BME280;14429;48.346;16.338;2023-04-25T08:38:35;98909.19;;;17.02;46.63
26859;BME280;14429;48.346;16.338;2023-04-25T08:41:00;98901.66;;;17.14;49.51
26859;BME280;14429;48.346;16.338;2023-04-25T08:43:28;98901.91;;;16.95;47.14
26859;BME280;14429;48.346;16.338;2023-04-25T08:45:57;98903.59;;;16.96;51.57
26859;BME280;14429;48.346;16.338;2023-04-25T08:48:24;98896.69;;;17.01;50.22
26859;BME280;14429;48.346;16.338;2023-04-25T08:50:53;98894.69;;;17.03;51.22
26859;BME280;14429;48.346;16.338;2023-04-25T08:53:22;98890.91;;;17.22;47.05
26859;BME280;14429;48.346;16.338;2023-04-25T08:55:50;98896.44;;;17.20;50.81
26859;BME280;14429;48.346;16.338;2023-04-25T08:58:18;98901.66;;;17.22;50.23
26859;BME280;14429;48.346;16.338;2023-04-25T09:00:46;98888.38;;;17.28;49.62
26859;BME280;14429;48.346;16.338;2023-04-25T09:03:11;98890.38;;;17.10;50.66
26859;BME280;14429;48.346;16.338;2023-04-25T09:05:37;98893.34;;;16.99;51.38
26859;BME280;14429;48.346;16.338;2023-04-25T09:08:02;98887.25;;;16.98;51.17
26859;BME280;14429;48.346;16.338;2023-04-25T09:10:28;98893.97;;;16.94;51.55
26859;BME280;14429;48.346;16.338;2023-04-25T09:13:04;98890.63;;;16.92;51.78
26859;BME280;14429;48.346;16.338;2023-04-25T09:15:30;98888.03;;;16.74;49.78
26859;BME280;14429;48.346;16.338;2023-04-25T09:17:57;98887.91;;;16.84;50.30
26859;BME280;14429;48.346;16.338;2023-04-25T09:20:23;98884.75;;;16.96;50.01
26859;BME280;14429;48.346;16.338;2023-04-25T09:22:48;98875.56;;;17.14;45.95
26859;BME280;14429;48.346;16.338;2023-04-25T09:25:14;98881.66;;;17.24;44.58
26859;BME280;14429;48.346;16.338;2023-04-25T09:27:49;98884.16;;;17.18;50.09
26859;BME280;14429;48.346;16.338;2023-04-25T09:30:15;98877.38;;;17.06;49.71
26859;BME280;14429;48.346;16.338;2023-04-25T09:32:42;98883.22;;;17.01;51.06
26859;BME280;14429;48.346;16.338;2023-04-25T09:35:09;98884.25;;;17.00;51.17
26859;BME280;14429;48.346;16.338;2023-04-25T09:37:35;98888.94;;;16.91;50.76
26859;BME280;14429;48.346;16.338;2023-04-25T09:40:05;98899.31;;;16.78;51.33
26859;BME280;14429;48.346;16.338;2023-04-25T09:42:31;98905.50;;;16.63;52.63
26859;BME280;14429;48.346;16.338;2023-04-25T09:44:58;98918.59;;;16.58;52.77
26859;BME280;14429;48.346;16.338;2023-04-25T09:47:24;98914.69;;;16.52;52.65
26859;BME280;14429;48.346;16.338;2023-04-25T09:49:51;98929.38;;;16.58;52.77
26859;BME280;14429;48.346;16.338;2023-04-25T09:52:19;98921.13;;;16.59;52.86
26859;BME280;14429;48.346;16.338;2023-04-25T09:54:46;98919.03;;;16.45;53.11
26859;BME280;14429;48.346;16.338;2023-04-25T09:57:13;98926.44;;;16.44;53.25
26859;BME280;14429;48.346;16.338;2023-04-25T09:59:39;98916.50;;;16.44;53.13
26859;BME280;14429;48.346;16.338;2023-04-25T10:02:08;98913.84;;;16.52;53.18
26859;BME280;14429;48.346;16.338;2023-04-25T10:04:34;98907.97;;;16.56;52.96
26859;BME280;14429;48.346;16.338;2023-04-25T10:07:00;98907.00;;;16.57;52.98
26859;BME280;14429;48.346;16.338;2023-04-25T10:09:29;98905.50;;;16.63;52.66
26859;BME280;14429;48.346;16.338;2023-04-25T10:11:56;98897.59;;;16.61;52.80
26859;BME280;14429;48.346;16.338;2023-04-25T10:14:23;98900.94;;;16.63;52.63
26859;BME280;14429;48.346;16.338;2023-04-25T10:16:49;98897.91;;;16.58;52.81
26859;BME280;14429;48.346;16.338;2023-04-25T10:19:15;98888.69;;;16.61;52.74
26859;BME280;14429;48.346;16.338;2023-04-25T10:21:47;98888.50;;;16.62;52.69
26859;BME280;14429;48.346;16.338;2023-04-25T10:24:14;98885.50;;;16.65;52.61
26859;BME280;14429;48.346;16.338;2023-04-25T10:26:41;98884.16;;;16.69;51.51
26859;BME280;14429;48.346;16.338;2023-04-25T10:29:07;98873.91;;;16.73;52.50
26859;BME280;14429;48.346;16.338;2023-04-25T10:31:44;98867.53;;;16.81;45.39
26859;BME280;14429;48.346;16.338;2023-04-25T10:34:10;98859.97;;;16.85;51.64
26859;BME280;14429;48.346;16.338;2023-04-25T10:36:36;98861.34;;;16.97;48.39
26859;BME280;14429;48.346;16.338;2023-04-25T10:39:04;98855.09;;;16.96;51.26
26859;BME280;14429;48.346;16.338;2023-04-25T10:41:29;98861.31;;;16.89;49.60
26859;BME280;14429;48.346;16.338;2023-04-25T10:44:00;98856.44;;;16.92;49.08
26859;BME280;14429;48.346;16.338;2023-04-25T10:46:27;98860.81;;;16.93;51.19
26859;BME280;14429;48.346;16.338;2023-04-25T10:48:54;98858.84;;;17.03;50.50
26859;BME280;14429;48.346;16.338;2023-04-25T10:51:21;98858.66;;;16.97;45.97
26859;BME280;14429;48.346;16.338;2023-04-25T10:53:57;98856.44;;;16.84;46.72
26859;BME280;14429;48.346;16.338;2023-04-25T10:56:25;98864.31;;;16.78;48.44
26859;BME280;14429;48.346;16.338;2023-04-25T10:58:50;98858.09;;;16.77;48.36
26859;BME280;14429;48.346;16.338;2023-04-25T11:01:21;98859.22;;;16.67;45.81
26859;BME280;14429;48.346;16.338;2023-04-25T11:03:57;98850.88;;;16.86;47.75
26859;BME280;14429;48.346;16.338;2023-04-25T11:06:28;98851.38;;;16.81;45.29
26859;BME280;14429;48.346;16.338;2023-04-25T11:08:54;98857.97;;;16.95;50.81
26859;BME280;14429;48.346;16.338;2023-04-25T11:11:20;98858.59;;;16.81;51.49
26859;BME280;14429;48.346;16.338;2023-04-25T11:13:48;98861.09;;;16.74;50.42
26859;BME280;14429;48.346;16.338;2023-04-25T11:16:13;98855.91;;;16.73;52.09
26859;BME280;14429;48.346;16.338;2023-04-25T11:18:42;98863.25;;;16.63;48.77
26859;BME280;14429;48.346;16.338;2023-04-25T11:21:07;98864.63;;;16.67;52.29
26859;BME280;14429;48.346;16.338;2023-04-25T11:23:33;98867.31;;;16.67;52.40
26859;BME280;14429;48.346;16.338;2023-04-25T11:25:58;98862.88;;;16.50;52.84
26859;BME280;14429;48.346;16.338;2023-04-25T11:28:24;98867.13;;;16.61;49.37
26859;BME280;14429;48.346;16.338;2023-04-25T11:30:49;98875.06;;;16.70;49.57
26859;BME280;14429;48.346;16.338;2023-04-25T11:33:14;98874.94;;;16.79;50.98
26859;BME280;14429;48.346;16.338;2023-04-25T11:35:41;98873.22;;;16.78;50.43
26859;BME280;14429;48.346;16.338;2023-04-25T11:38:07;98882.53;;;16.84;46.99
26859;BME280;14429;48.346;16.338;2023-04-25T11:40:33;98871.28;;;16.96;46.91
26859;BME280;14429;48.346;16.338;2023-04-25T11:43:00;98881.22;;;16.96;44.22
26859;BME280;14429;48.346;16.338;2023-04-25T11:45:26;98881.00;;;16.81;49.13
26859;BME280;14429;48.346;16.338;2023-04-25T11:47:52;98881.34;;;16.86;46.95
26859;BME280;14429;48.346;16.338;2023-04-25T11:50:17;98868.97;;;17.09;48.42
26859;BME280;14429;48.346;16.338;2023-04-25T11:52:46;98884.16;;;17.26;48.68
26859;BME280;14429;48.346;16.338;2023-04-25T11:55:14;98886.28;;;16.99;49.95
26859;BME280;14429;48.346;16.338;2023-04-25T11:57:40;98882.88;;;16.97;50.79
26859;BME280;14429;48.346;16.338;2023-04-25T12:00:08;98886.72;;;16.86;51.34
26859;BME280;14429;48.346;16.338;2023-04-25T12:02:34;98877.13;;;16.84;51.72
26859;BME280;14429;48.346;16.338;2023-04-25T12:05:00;98885.13;;;16.68;51.94
26859;BME280;14429;48.346;16.338;2023-04-25T12:07:28;98889.16;;;16.64;52.18
26859;BME280;14429;48.346;16.338;2023-04-25T12:09:55;98879.13;;;16.74;49.78
26859;BME280;14429;48.346;16.338;2023-04-25T12:12:21;98878.75;;;16.61;52.18
26859;BME280;14429;48.346;16.338;2023-04-25T12:14:47;98891.19;;;16.62;51.00
26859;BME280;14429;48.346;16.338;2023-04-25T12:17:12;98875.03;;;16.62;51.98
26859;BME280;14429;48.346;16.338;2023-04-25T12:19:38;98885.84;;;16.70;51.71
26859;BME280;14429;48.346;16.338;2023-04-25T12:22:18;98873.66;;;16.50;52.09
26859;BME280;14429;48.346;16.338;2023-04-25T12:24:44;98887.13;;;16.58;51.67
26859;BME280;14429;48.346;16.338;2023-04-25T12:27:14;98887.13;;;16.58;51.82
26859;BME280;14429;48.346;16.338;2023-04-25T12:29:39;98886.81;;;16.61;51.94
26859;BME280;14429;48.346;16.338;2023-04-25T12:32:15;98873.97;;;16.47;52.42
26859;BME280;14429;48.346;16.338;2023-04-25T12:34:40;98875.63;;;16.41;52.41
26859;BME280;14429;48.346;16.338;2023-04-25T12:37:06;98879.94;;;16.34;51.98
26859;BME280;14429;48.346;16.338;2023-04-25T12:39:31;98885.72;;;16.39;52.29
26859;BME280;14429;48.346;16.338;2023-04-25T12:41:57;98875.66;;;16.48;51.85
26859;BME280;14429;48.346;16.338;2023-04-25T12:44:23;98876.34;;;16.50;52.02